Time;durP1;ratioP1;P1;durP2;ratioP2;P2;SDS_P1;SDS_P2;PMS_P1;PMS_P2;Temp;Humidity;BMP_temperature;BMP_pressure;BME280_temperature;BME280_humidity;BME280_pressure;Samples;Min_cycle;Max_cycle;Signal;HPM_P1;HPM_P2
2023/01/31 00:00:55;;;;;;;;;20.00;20.00;;;;;8.82;62.96;102341.97;2061420;28;45434;-65
2023/01/31 00:01:55;;;;;;;;;22.25;20.75;;;;;8.81;62.90;102341.09;2061959;27;46253;-67
2023/01/31 00:02:55;;;;;;;;;21.00;20.00;;;;;8.80;63.01;102343.72;2061807;28;45885;-66
2023/01/31 00:03:59;;;;;;;;;19.00;19.00;;;;;8.80;63.13;102341.09;2076373;27;45077;-67
2023/01/31 00:04:59;;;;;;;;;21.80;20.20;;;;;8.80;63.02;102336.69;2077135;27;46495;-67
2023/01/31 00:06:10;;;;;;;;;22.25;20.25;;;;;8.80;63.15;102334.03;2069925;27;46618;-67
2023/01/31 00:07:10;;;;;;;;;26.00;21.60;;;;;8.80;63.07;102333.13;2076400;27;45912;-66
2023/01/31 00:08:12;;;;;;;;;22.50;22.50;;;;;8.80;63.10;102330.50;2082111;27;45925;-67
2023/01/31 00:09:13;;;;;;;;;20.40;19.00;;;;;8.79;63.22;102331.38;2065033;28;45779;-67
2023/01/31 00:10:13;;;;;;;;;22.25;21.50;;;;;8.79;63.24;102331.38;2078594;27;46644;-67
2023/01/31 00:11:17;;;;;;;;;24.75;21.75;;;;;8.79;63.34;102326.06;2070274;28;46775;-66
2023/01/31 00:12:17;;;;;;;;;24.20;21.60;;;;;8.78;63.37;102329.59;2069225;28;46395;-67
2023/01/31 00:13:17;;;;;;;;;20.50;20.00;;;;;8.77;63.22;102325.16;2066379;28;46231;-66
2023/01/31 00:14:19;;;;;;;;;22.00;19.50;;;;;8.77;63.24;102327.81;2094433;28;46380;-66
2023/01/31 00:15:19;;;;;;;;;26.60;21.20;;;;;8.76;63.25;102326.91;2073631;27;46557;-67
2023/01/31 00:16:21;;;;;;;;;25.00;20.00;;;;;8.76;63.46;102326.91;2096777;27;46642;-67
2023/01/31 00:17:21;;;;;;;;;21.40;21.00;;;;;8.76;63.28;102332.19;2095447;27;46753;-66
2023/01/31 00:18:21;;;;;;;;;21.25;20.25;;;;;8.76;63.19;102326.00;2080678;27;46096;-66
2023/01/31 00:19:22;;;;;;;;;18.50;17.50;;;;;8.76;63.29;102332.19;2101784;27;47380;-65
2023/01/31 00:20:22;;;;;;;;;23.00;23.00;;;;;8.75;63.24;102327.78;2085048;27;45878;-65
2023/01/31 00:21:25;;;;;;;;;19.25;19.00;;;;;8.74;63.23;102326.00;2086188;27;46721;-66
2023/01/31 00:22:25;;;;;;;;;24.00;20.60;;;;;8.72;63.30;102319.81;2063384;28;45670;-66
2023/01/31 00:23:26;;;;;;;;;23.75;22.25;;;;;8.72;63.37;102330.38;2063071;28;45815;-65
2023/01/31 00:24:26;;;;;;;;;22.00;20.25;;;;;8.73;63.31;102328.63;2069908;27;46648;-66
2023/01/31 00:25:26;;;;;;;;;23.75;21.00;;;;;8.72;63.56;102327.75;2103345;27;46895;-65
2023/01/31 00:26:29;;;;;;;;;22.75;20.50;;;;;8.72;63.68;102327.75;2103646;27;46688;-67
2023/01/31 00:27:29;;;;;;;;;20.00;20.00;;;;;8.71;63.40;102325.97;2096667;27;46707;-66
2023/01/31 00:28:30;;;;;;;;;19.25;18.75;;;;;8.71;63.43;102318.03;2071161;27;46293;-65
2023/01/31 00:29:30;;;;;;;;;24.00;20.00;;;;;8.69;63.52;102325.06;2077686;27;46285;-66
2023/01/31 00:30:30;;;;;;;;;23.50;21.50;;;;;8.69;63.59;102325.06;2079198;27;46860;-65
2023/01/31 00:31:33;;;;;;;;;27.25;23.00;;;;;8.69;63.61;102322.41;2077420;27;46644;-65
2023/01/31 00:32:33;;;;;;;;;32.80;30.00;;;;;8.69;63.80;102322.41;2075592;27;46469;-66
2023/01/31 00:33:34;;;;;;;;;23.00;21.75;;;;;8.69;63.50;102319.78;2074721;27;47158;-66
2023/01/31 00:34:35;;;;;;;;;23.20;21.00;;;;;8.69;63.34;102321.53;2078962;27;45691;-67
2023/01/31 00:35:38;;;;;;;;;21.75;18.75;;;;;8.68;63.47;102318.00;2078013;28;46131;-65
2023/01/31 00:36:39;;;;;;;;;22.40;21.20;;;;;8.67;63.58;102323.28;2093324;27;46126;-67
2023/01/31 00:37:39;;;;;;;;;21.50;20.00;;;;;8.67;63.61;102324.16;2094456;27;46693;-66
2023/01/31 00:38:41;;;;;;;;;21.50;19.25;;;;;8.68;63.55;102325.94;2101258;27;45989;-66
2023/01/31 00:39:41;;;;;;;;;24.00;22.00;;;;;8.67;63.45;102321.53;2071983;28;47006;-66
2023/01/31 00:40:41;;;;;;;;;24.50;22.25;;;;;8.68;63.71;102325.06;2071361;28;45101;-66
2023/01/31 00:41:42;;;;;;;;;19.00;19.00;;;;;8.68;63.53;102320.66;2098470;27;45896;-67
2023/01/31 00:42:43;;;;;;;;;20.75;20.75;;;;;8.68;63.57;102325.94;2079283;27;46605;-66
2023/01/31 00:43:43;;;;;;;;;19.40;18.00;;;;;8.67;63.61;102316.22;2112337;27;46817;-66
2023/01/31 00:44:43;;;;;;;;;15.25;13.75;;;;;8.68;63.63;102317.13;2106131;27;47094;-65
2023/01/31 00:45:44;;;;;;;;;17.25;14.50;;;;;8.69;63.59;102319.78;2102874;27;46772;-67
2023/01/31 00:46:44;;;;;;;;;17.25;16.75;;;;;8.69;63.62;102309.19;2069344;27;45992;-66
2023/01/31 00:47:44;;;;;;;;;19.00;19.00;;;;;8.69;63.61;102313.59;2065923;28;47139;-66
2023/01/31 00:48:45;;;;;;;;;21.25;18.25;;;;;8.70;63.43;102315.38;2060891;28;46930;-67
2023/01/31 00:49:45;;;;;;;;;21.00;17.50;;;;;8.70;63.34;102312.72;2073512;28;46738;-65
2023/01/31 00:50:45;;;;;;;;;18.75;16.75;;;;;8.68;63.60;102311.81;2072006;27;46734;-65
2023/01/31 00:51:46;;;;;;;;;13.75;13.75;;;;;8.69;63.34;102316.25;2069912;28;46566;-70
2023/01/31 00:52:46;;;;;;;;;16.50;14.50;;;;;8.66;63.11;102314.47;2062123;28;45526;-65
2023/01/31 00:53:49;;;;;;;;;17.25;15.25;;;;;8.66;63.34;102308.28;2065812;28;46158;-66
2023/01/31 00:54:49;;;;;;;;;14.20;14.20;;;;;8.64;63.34;102315.28;2069463;28;46892;-66
2023/01/31 00:55:51;;;;;;;;;10.50;9.50;;;;;8.62;63.32;102309.97;2069061;28;46346;-65
2023/01/31 00:56:51;;;;;;;;;16.20;14.00;;;;;8.62;63.39;102315.25;2065870;28;47155;-66
2023/01/31 00:57:51;;;;;;;;;15.00;14.25;;;;;8.61;63.41;102310.84;2064433;28;46247;-66
2023/01/31 00:58:52;;;;;;;;;14.50;13.50;;;;;8.60;63.46;102311.72;2061453;28;46823;-66
2023/01/31 00:59:53;;;;;;;;;13.40;13.40;;;;;8.59;63.42;102304.66;2062472;27;46935;-66
2023/01/31 01:00:53;;;;;;;;;14.25;14.25;;;;;8.58;63.50;102302.00;2069468;28;47007;-67
2023/01/31 01:01:54;;;;;;;;;13.00;12.00;;;;;8.58;63.65;102304.63;2069033;28;46361;-66
2023/01/31 01:02:54;;;;;;;;;15.40;13.80;;;;;8.58;63.35;102307.28;2069957;28;46881;-65
2023/01/31 01:03:56;;;;;;;;;14.00;13.00;;;;;8.57;63.69;102306.41;2105958;27;46493;-66
2023/01/31 01:04:56;;;;;;;;;11.20;11.20;;;;;8.57;63.55;102308.16;2093120;27;46494;-67
2023/01/31 01:05:56;;;;;;;;;13.25;12.00;;;;;8.56;63.42;102296.69;2070183;28;46190;-67
2023/01/31 01:06:57;;;;;;;;;11.25;11.25;;;;;8.57;63.54;102297.56;2070340;27;46214;-65
2023/01/31 01:07:57;;;;;;;;;11.00;11.00;;;;;8.56;63.65;102296.69;2071207;28;46517;-65
2023/01/31 01:08:58;;;;;;;;;13.00;12.75;;;;;8.57;63.68;102297.56;2065851;28;46254;-65
2023/01/31 01:09:59;;;;;;;;;10.60;10.60;;;;;8.58;63.47;102294.06;2065038;28;45879;-65
2023/01/31 01:11:26;;;;;;;;;12.00;12.00;;;;;8.56;63.54;102296.69;2053406;28;47504;-63
2023/01/31 01:12:27;;;;;;;;;10.60;10.20;;;;;8.55;63.71;102298.44;2073830;28;46641;-66
2023/01/31 01:13:27;;;;;;;;;13.50;12.00;;;;;8.55;63.89;102301.09;2085136;28;47174;-66
2023/01/31 01:14:27;;;;;;;;;14.75;11.75;;;;;8.55;63.57;102295.81;2086511;28;46881;-68
2023/01/31 01:15:28;;;;;;;;;14.00;12.75;;;;;8.55;63.59;102300.22;2087805;28;45789;-66
2023/01/31 01:16:34;;;;;;;;;14.25;12.25;;;;;8.54;63.73;102290.50;2087076;28;46042;-66
2023/01/31 01:17:35;;;;;;;;;15.60;11.40;;;;;8.54;63.57;102296.66;2087410;28;45855;-67
2023/01/31 01:18:35;;;;;;;;;12.00;11.25;;;;;8.55;63.52;102297.56;2084488;28;46154;-67
2023/01/31 01:19:35;;;;;;;;;11.25;10.75;;;;;8.55;63.58;102294.91;2081698;28;45163;-65
2023/01/31 01:20:36;;;;;;;;;16.00;14.00;;;;;8.55;63.63;102297.56;2090154;28;46271;-67
2023/01/31 01:21:39;;;;;;;;;8.75;8.75;;;;;8.53;63.75;102294.91;2087319;28;46808;-67
2023/01/31 01:22:41;;;;;;;;;6.60;6.60;;;;;8.54;63.74;102293.13;2087134;28;46954;-66
2023/01/31 01:23:42;;;;;;;;;11.00;11.00;;;;;8.54;63.69;102301.06;2087018;28;46208;-69
2023/01/31 01:24:43;;;;;;;;;11.80;11.80;;;;;8.53;63.42;102294.91;2087449;28;45617;-67
2023/01/31 01:25:44;;;;;;;;;11.75;10.50;;;;;8.53;63.89;102299.31;2086804;28;46322;-67
2023/01/31 01:26:45;;;;;;;;;11.00;10.25;;;;;8.52;63.39;102297.53;2087492;28;45408;-67
2023/01/31 01:27:45;;;;;;;;;10.60;10.60;;;;;8.51;63.65;102304.59;2077739;28;45649;-67
2023/01/31 01:28:47;;;;;;;;;10.50;9.50;;;;;8.51;63.76;102301.00;2063184;28;46210;-67
2023/01/31 01:29:47;;;;;;;;;12.20;12.20;;;;;8.50;63.68;102299.25;2075769;28;46090;-68
2023/01/31 01:30:48;;;;;;;;;12.00;10.25;;;;;8.49;63.63;102297.47;2086813;28;46608;-66
2023/01/31 01:31:48;;;;;;;;;12.75;10.75;;;;;8.50;63.81;102304.53;2087550;28;45466;-67
2023/01/31 01:32:48;;;;;;;;;13.75;13.50;;;;;8.50;63.66;102304.53;2085207;28;46362;-67
2023/01/31 01:33:48;;;;;;;;;10.00;10.00;;;;;8.50;63.67;102301.88;2087364;28;46675;-66
2023/01/31 01:34:49;;;;;;;;;12.00;11.00;;;;;8.51;63.50;102306.31;2086635;28;46814;-70
2023/01/31 01:35:49;;;;;;;;;11.00;9.50;;;;;8.51;63.50;102308.94;2086446;28;46622;-67
2023/01/31 01:36:49;;;;;;;;;13.25;12.25;;;;;8.52;63.70;102309.00;2086987;28;46469;-66
2023/01/31 01:37:50;;;;;;;;;13.25;11.25;;;;;8.51;63.52;102298.38;2086112;28;46034;-67
2023/01/31 01:38:51;;;;;;;;;13.00;12.75;;;;;8.51;63.75;102309.88;2087408;28;46442;-67
2023/01/31 01:39:52;;;;;;;;;13.80;13.40;;;;;8.50;63.73;102308.06;2087201;28;46774;-66
2023/01/31 01:40:52;;;;;;;;;12.80;12.20;;;;;8.50;63.66;102309.81;2086408;28;46807;-67
2023/01/31 01:41:52;;;;;;;;;12.75;10.75;;;;;8.50;63.62;102305.41;2078963;28;45988;-66
2023/01/31 01:42:53;;;;;;;;;15.50;13.00;;;;;8.50;63.59;102313.34;2078961;28;46498;-66
2023/01/31 01:43:56;;;;;;;;;14.00;13.00;;;;;8.50;63.87;102307.19;2087055;28;44964;-67
2023/01/31 01:44:59;;;;;;;;;15.20;13.00;;;;;8.50;63.66;102309.81;2087534;28;46709;-67
2023/01/31 01:45:59;;;;;;;;;15.20;13.20;;;;;8.49;63.67;102306.28;2086652;28;46491;-65
2023/01/31 01:47:00;;;;;;;;;18.75;13.00;;;;;8.48;63.67;102309.81;2087129;28;46451;-65
2023/01/31 01:48:07;;;;;;;;;11.50;11.25;;;;;8.48;63.85;102307.16;2085796;28;46331;-64
2023/01/31 01:49:35;;;;;;;;;15.40;15.20;;;;;8.48;63.96;102307.16;2083485;28;46906;-65
2023/01/31 01:50:41;;;;;;;;;13.80;12.20;;;;;8.48;63.85;102299.22;2064268;28;46971;-65
2023/01/31 01:51:44;;;;;;;;;13.80;13.80;;;;;8.49;63.88;102303.66;2070362;28;46453;-65
2023/01/31 01:52:49;;;;;;;;;14.80;14.80;;;;;8.50;64.03;102304.53;2066392;28;46730;-67
2023/01/31 01:53:54;;;;;;;;;13.20;12.80;;;;;8.50;63.84;102302.78;2070900;27;48494;-66
2023/01/31 01:55:19;;;;;;;;;13.40;11.80;;;;;8.50;63.86;102302.78;2065832;28;45804;-64
2023/01/31 01:56:27;;;;;;;;;17.20;14.60;;;;;8.52;63.94;102297.53;2070108;28;46883;-65
2023/01/31 01:57:39;;;;;;;;;16.40;13.20;;;;;8.51;63.84;102299.28;2070286;27;46619;-65
2023/01/31 01:58:51;;;;;;;;;15.00;14.60;;;;;8.51;63.94;102299.28;2069430;28;46602;-65
2023/01/31 02:00:03;;;;;;;;;15.20;12.60;;;;;8.52;63.74;102298.41;2066381;28;46722;-65
2023/01/31 02:01:06;;;;;;;;;17.20;15.20;;;;;8.52;63.82;102295.78;2063720;28;46456;-68
2023/01/31 02:02:06;;;;;;;;;15.00;13.20;;;;;8.51;63.90;102299.28;2070516;28;45898;-65
2023/01/31 02:03:07;;;;;;;;;13.75;13.75;;;;;8.51;63.90;102296.66;2071273;27;46729;-66
2023/01/31 02:04:14;;;;;;;;;13.00;13.00;;;;;8.51;64.23;102295.72;2111842;27;46412;-67
2023/01/31 02:05:23;;;;;;;;;16.40;14.00;;;;;8.51;63.76;102299.28;2060982;28;46488;-67
2023/01/31 02:06:24;;;;;;;;;13.00;13.00;;;;;8.52;64.00;102294.88;2065195;27;46925;-68
2023/01/31 02:07:25;;;;;;;;;16.25;13.25;;;;;8.52;63.82;102294.88;2070353;28;45599;-68
2023/01/31 02:08:30;;;;;;;;;16.80;15.40;;;;;8.50;63.95;102286.91;2070337;28;45890;-68
2023/01/31 02:09:45;;;;;;;;;12.60;11.60;;;;;8.51;63.92;102296.66;2063889;28;46911;-67
2023/01/31 02:10:54;;;;;;;;;20.60;18.40;;;;;8.52;63.89;102286.94;2070181;27;46907;-67
2023/01/31 02:11:55;;;;;;;;;14.00;12.40;;;;;8.51;63.90;102293.06;2061029;28;46462;-66
2023/01/31 02:12:56;;;;;;;;;15.20;13.60;;;;;8.50;63.97;102289.53;2067323;28;46514;-66
2023/01/31 02:14:08;;;;;;;;;15.00;15.00;;;;;8.51;63.99;102287.78;2070101;27;45006;-68
2023/01/31 02:15:09;;;;;;;;;14.00;13.80;;;;;8.51;63.92;102287.78;2062133;28;45979;-66
2023/01/31 02:16:09;;;;;;;;;10.00;9.40;;;;;8.50;63.96;102289.53;2068593;28;45771;-67
2023/01/31 02:17:16;;;;;;;;;11.00;11.00;;;;;8.50;63.87;102292.19;2070241;27;46532;-67
2023/01/31 02:18:20;;;;;;;;;15.40;12.20;;;;;8.50;64.05;102280.72;2069823;27;46861;-66
2023/01/31 02:19:45;;;;;;;;;20.40;18.20;;;;;8.51;64.02;102285.13;2071588;28;46012;-66
2023/01/31 02:21:42;;;;;;;;;16.20;14.60;;;;;8.50;64.03;102286.91;2067842;28;46543;-66
2023/01/31 02:23:40;;;;;;;;;16.60;15.60;;;;;8.51;63.85;102294.00;2076568;28;45644;-66
2023/01/31 02:25:02;;;;;;;;;14.80;13.80;;;;;8.50;63.86;102297.47;2046384;28;46913;-67
2023/01/31 02:26:51;;;;;;;;;16.20;13.60;;;;;8.50;63.86;102291.31;2046121;28;47058;-66
2023/01/31 02:28:11;;;;;;;;;12.80;12.00;;;;;8.49;63.89;102289.53;2045253;28;46575;-66
2023/01/31 02:29:29;;;;;;;;;16.20;15.00;;;;;8.48;63.92;102295.69;2046055;28;46891;-67
2023/01/31 02:31:03;;;;;;;;;16.00;13.00;;;;;8.48;63.88;102301.00;2045622;28;46587;-67
2023/01/31 02:32:28;;;;;;;;;14.40;14.40;;;;;8.48;63.80;102295.69;2046284;28;45688;-66
2023/01/31 02:33:48;;;;;;;;;11.20;11.20;;;;;8.44;64.04;102293.88;2046029;28;46993;-67
2023/01/31 02:34:52;;;;;;;;;14.40;14.00;;;;;8.44;63.97;102288.59;2037774;28;46476;-66
2023/01/31 02:35:59;;;;;;;;;17.20;14.80;;;;;8.44;64.03;102294.78;2038293;28;47558;-66
2023/01/31 02:37:20;;;;;;;;;17.40;15.20;;;;;8.43;64.31;102298.28;2045580;28;46501;-67
2023/01/31 02:38:41;;;;;;;;;16.00;15.80;;;;;8.44;63.88;102294.78;2039734;28;46419;-67
2023/01/31 02:40:00;;;;;;;;;12.00;11.80;;;;;8.44;64.09;102293.88;2046196;28;46201;-66
2023/01/31 02:41:13;;;;;;;;;12.60;12.60;;;;;8.44;63.98;102297.41;2046055;28;46030;-66
2023/01/31 02:42:32;;;;;;;;;15.40;15.00;;;;;8.42;63.98;102299.16;2045935;28;46868;-66
2023/01/31 02:45:25;;;;;;;;;15.60;13.80;;;;;8.42;64.10;102299.16;2040756;28;46049;-66
2023/01/31 02:46:57;;;;;;;;;11.60;11.40;;;;;8.41;64.06;102305.31;2046470;28;46878;-67
2023/01/31 02:48:11;;;;;;;;;10.40;10.20;;;;;8.40;64.15;102300.91;2046153;28;46350;-66
2023/01/31 02:49:34;;;;;;;;;13.80;11.80;;;;;8.40;64.21;102297.38;2038450;28;46564;-67
2023/01/31 02:50:43;;;;;;;;;16.80;15.00;;;;;8.39;64.18;102298.25;2041366;28;45761;-66
2023/01/31 02:52:15;;;;;;;;;11.40;11.40;;;;;8.38;64.22;102288.50;2046139;28;45718;-66
2023/01/31 02:53:15;;;;;;;;;13.20;12.60;;;;;8.37;64.18;102295.56;2037844;28;46554;-65
2023/01/31 02:56:13;;;;;;;;;13.60;11.80;;;;;8.37;64.20;102294.66;2064649;28;45935;-65
2023/01/31 02:56:16;;;;;;;;;17.20;17.00;;;;;8.34;64.16;102290.22;2036663;28;47149;-65
2023/01/31 02:57:18;;;;;;;;;12.00;12.00;;;;;8.32;64.20;102296.34;2075736;27;45676;-66
2023/01/31 02:58:20;;;;;;;;;12.80;11.60;;;;;8.32;64.64;102289.31;2077106;28;46396;-65
2023/01/31 02:59:26;;;;;;;;;11.40;11.40;;;;;8.33;64.38;102290.19;2069745;27;46355;-64
2023/01/31 03:00:31;;;;;;;;;14.60;12.40;;;;;8.34;64.41;102289.31;2070505;27;46492;-66
2023/01/31 03:01:41;;;;;;;;;16.00;15.60;;;;;8.36;64.49;102298.19;2076984;28;46619;-64
2023/01/31 03:02:41;;;;;;;;;14.00;12.00;;;;;8.35;64.38;102286.72;2078585;27;46838;-65
2023/01/31 03:03:42;;;;;;;;;12.00;12.00;;;;;8.34;64.43;102286.66;2069286;27;47038;-67
2023/01/31 03:04:42;;;;;;;;;15.50;12.00;;;;;8.35;64.29;102292.00;2068958;28;46300;-66
2023/01/31 03:05:43;;;;;;;;;17.00;15.25;;;;;8.35;64.57;102291.13;2078083;27;46461;-64
2023/01/31 03:06:43;;;;;;;;;18.25;14.75;;;;;8.34;64.45;102290.22;2082590;27;46360;-65
2023/01/31 03:07:49;;;;;;;;;16.00;12.75;;;;;8.35;64.40;102289.38;2120020;27;46527;-65
2023/01/31 03:09:20;;;;;;;;;10.80;10.40;;;;;8.35;64.40;102288.47;2081901;27;46938;-65
2023/01/31 03:10:43;;;;;;;;;15.20;15.20;;;;;8.35;64.49;102284.06;2077863;27;46913;-67
2023/01/31 03:11:52;;;;;;;;;10.60;10.40;;;;;8.34;64.51;102287.59;2077533;28;46093;-65
2023/01/31 03:12:58;;;;;;;;;14.20;13.40;;;;;8.34;64.37;102286.66;2076907;28;46795;-65
2023/01/31 03:14:50;;;;;;;;;17.00;12.60;;;;;8.34;64.34;102292.88;2077936;27;46392;-65
2023/01/31 03:17:32;;;;;;;;;12.20;12.00;;;;;8.35;64.55;102291.13;2061242;28;46929;-66
2023/01/31 03:18:59;;;;;;;;;15.00;15.00;;;;;8.35;64.61;102283.19;2055986;28;46627;-66
2023/01/31 03:20:25;;;;;;;;;13.80;12.00;;;;;8.35;64.44;102285.84;2056237;28;46834;-66
2023/01/31 03:21:52;;;;;;;;;14.00;13.40;;;;;8.34;64.67;102286.66;2065550;28;45703;-65
2023/01/31 03:23:15;;;;;;;;;12.00;12.00;;;;;8.33;64.63;102287.53;2061128;28;46702;-66
2023/01/31 03:24:17;;;;;;;;;16.80;14.60;;;;;8.32;64.63;102291.06;2055317;28;46566;-66
2023/01/31 03:25:22;;;;;;;;;13.80;12.20;;;;;8.32;64.65;102286.66;2060727;28;46911;-66
2023/01/31 03:26:24;;;;;;;;;13.20;12.60;;;;;8.32;64.65;102291.06;2061343;28;46990;-66
2023/01/31 03:27:27;;;;;;;;;12.00;12.00;;;;;8.32;64.46;102294.59;2054601;28;46635;-66
2023/01/31 03:28:30;;;;;;;;;13.60;13.60;;;;;8.31;64.64;102292.81;2052146;28;45588;-65
2023/01/31 03:29:35;;;;;;;;;14.00;12.60;;;;;8.31;64.60;102294.56;2050000;28;45787;-67
2023/01/31 03:30:48;;;;;;;;;16.80;13.00;;;;;8.31;64.63;102307.81;2045958;28;46249;-65
2023/01/31 03:32:02;;;;;;;;;15.40;15.40;;;;;8.29;64.81;102289.28;2037760;28;46538;-67
2023/01/31 03:33:12;;;;;;;;;13.20;9.80;;;;;8.28;64.70;102292.78;2040263;28;46412;-65
2023/01/31 03:34:14;;;;;;;;;12.00;12.00;;;;;8.28;64.61;102300.72;2045319;28;45804;-68
2023/01/31 03:35:15;;;;;;;;;15.80;13.60;;;;;8.26;64.78;102292.78;2037795;28;47089;-67
2023/01/31 03:36:37;;;;;;;;;12.50;12.00;;;;;8.25;64.68;102300.66;2037568;28;46542;-66
2023/01/31 03:37:56;;;;;;;;;7.80;6.40;;;;;8.25;64.69;102298.91;2050703;28;46466;-67
2023/01/31 03:39:07;;;;;;;;;19.00;18.00;;;;;8.25;64.58;102300.66;2045666;28;46569;-65
2023/01/31 03:40:11;;;;;;;;;17.80;14.80;;;;;8.23;64.84;102303.28;2045636;28;46799;-66
2023/01/31 03:41:22;;;;;;;;;13.80;13.20;;;;;8.22;64.72;102295.34;2045770;28;47011;-67
2023/01/31 03:42:52;;;;;;;;;13.60;13.40;;;;;8.22;64.87;102290.03;2046163;28;45659;-66
2023/01/31 03:44:05;;;;;;;;;8.40;8.40;;;;;8.21;64.80;102290.91;2045169;28;46817;-66
2023/01/31 03:45:09;;;;;;;;;14.00;12.00;;;;;8.20;64.73;102297.06;2045425;28;46417;-66
2023/01/31 03:46:24;;;;;;;;;11.00;11.00;;;;;8.19;65.11;102295.31;2045528;28;46190;-66
2023/01/31 03:47:35;;;;;;;;;12.20;10.20;;;;;8.17;64.91;102300.56;2045905;28;46942;-66
2023/01/31 03:48:41;;;;;;;;;12.40;12.20;;;;;8.18;64.95;102309.41;2045337;28;46178;-66
2023/01/31 03:49:44;;;;;;;;;18.20;15.20;;;;;8.17;65.08;102297.94;2045409;28;46752;-66
2023/01/31 03:50:52;;;;;;;;;12.00;11.80;;;;;8.16;65.14;102297.91;2046380;28;46826;-67
2023/01/31 03:51:59;;;;;;;;;12.00;9.80;;;;;8.14;65.01;102295.25;2044760;28;46546;-67
2023/01/31 03:53:12;;;;;;;;;9.60;6.80;;;;;8.14;65.06;102286.44;2070010;28;46561;-67
2023/01/31 03:54:24;;;;;;;;;13.40;12.60;;;;;8.12;64.98;102296.06;2069304;27;46730;-66
2023/01/31 03:55:42;;;;;;;;;10.40;10.40;;;;;8.11;65.16;102289.00;2062795;28;46810;-65
2023/01/31 03:56:46;;;;;;;;;18.00;13.00;;;;;8.11;64.84;102303.13;2070027;28;46722;-66
2023/01/31 03:57:52;;;;;;;;;12.00;10.40;;;;;8.11;65.18;102302.22;2062318;28;46772;-67
2023/01/31 03:59:01;;;;;;;;;11.00;11.00;;;;;8.10;65.45;102306.63;2061002;28;46809;-66
2023/01/31 04:00:05;;;;;;;;;13.20;12.40;;;;;8.09;65.19;102304.84;2061894;28;46349;-64
2023/01/31 04:01:09;;;;;;;;;16.40;13.00;;;;;8.07;65.27;102298.66;2069962;28;47396;-66
2023/01/31 04:02:14;;;;;;;;;15.20;13.60;;;;;8.06;65.25;102298.66;2069462;28;46614;-66
2023/01/31 04:03:32;;;;;;;;;8.40;6.80;;;;;8.04;65.20;102290.69;2077203;27;45918;-66
2023/01/31 04:04:44;;;;;;;;;8.80;7.00;;;;;8.04;65.55;102295.97;2061840;28;46899;-66
2023/01/31 04:05:45;;;;;;;;;12.20;11.60;;;;;8.04;65.31;102298.63;2062450;28;46795;-66
2023/01/31 04:06:45;;;;;;;;;11.20;9.80;;;;;8.04;65.33;102293.34;2061705;28;46437;-66
2023/01/31 04:07:46;;;;;;;;;14.50;14.00;;;;;8.04;65.32;102295.97;2062041;28;45515;-67
2023/01/31 04:08:46;;;;;;;;;13.50;13.50;;;;;8.03;65.22;102299.50;2065272;28;46076;-66
2023/01/31 04:09:47;;;;;;;;;12.50;10.00;;;;;8.03;65.24;102304.78;2066377;28;45321;-67
2023/01/31 04:10:49;;;;;;;;;13.25;11.50;;;;;8.01;65.13;102300.34;2070297;28;44980;-66
2023/01/31 04:11:50;;;;;;;;;12.60;12.20;;;;;8.00;65.41;102299.44;2068911;27;46995;-66
2023/01/31 04:12:50;;;;;;;;;12.00;11.25;;;;;8.00;65.08;102296.78;2069873;28;46658;-66
2023/01/31 04:13:51;;;;;;;;;12.00;11.00;;;;;7.99;65.37;102292.38;2061401;28;46696;-66
2023/01/31 04:14:51;;;;;;;;;11.50;10.75;;;;;7.96;65.42;102295.88;2061365;28;45794;-65
2023/01/31 04:15:51;;;;;;;;;13.50;12.25;;;;;7.96;65.65;102293.22;2069934;28;46325;-67
2023/01/31 04:16:52;;;;;;;;;11.25;11.00;;;;;7.97;65.48;102302.03;2074880;28;46349;-66
2023/01/31 04:17:52;;;;;;;;;9.25;9.25;;;;;7.96;65.65;102292.34;2093531;28;46393;-66
2023/01/31 04:18:52;;;;;;;;;12.50;11.00;;;;;7.96;65.21;102290.56;2069234;27;46484;-68
2023/01/31 04:19:53;;;;;;;;;12.75;11.25;;;;;7.98;65.68;102293.25;2051153;28;46756;-66
2023/01/31 04:20:53;;;;;;;;;13.00;12.25;;;;;7.98;65.54;102295.88;2053392;28;46741;-67
2023/01/31 04:21:53;;;;;;;;;11.25;11.00;;;;;7.98;65.54;102295.88;2062492;28;46110;-66
2023/01/31 04:22:54;;;;;;;;;11.75;10.25;;;;;7.98;65.40;102290.59;2064973;28;45906;-66
2023/01/31 04:23:54;;;;;;;;;10.75;10.00;;;;;7.97;65.44;102287.06;2069722;28;46604;-66
2023/01/31 04:24:54;;;;;;;;;11.00;10.25;;;;;7.96;65.57;102293.22;2069201;27;46851;-66
2023/01/31 04:25:55;;;;;;;;;13.75;12.50;;;;;7.96;65.58;102290.56;2069206;28;45540;-67
2023/01/31 04:26:55;;;;;;;;;10.25;9.25;;;;;7.96;65.60;102293.22;2068748;28;45595;-67
2023/01/31 04:27:55;;;;;;;;;11.00;10.00;;;;;7.97;65.46;102296.75;2070002;28;45730;-66
2023/01/31 04:28:56;;;;;;;;;15.00;11.75;;;;;7.97;65.47;102295.00;2069396;28;46566;-66
2023/01/31 04:29:56;;;;;;;;;11.00;10.00;;;;;7.98;65.67;102302.06;2060950;28;45489;-65
2023/01/31 04:30:56;;;;;;;;;14.50;12.00;;;;;7.99;65.47;102302.94;2052770;28;46378;-66
2023/01/31 04:31:57;;;;;;;;;10.00;10.00;;;;;8.00;65.65;102304.72;2060738;28;46445;-66
2023/01/31 04:32:57;;;;;;;;;16.00;12.00;;;;;8.01;65.45;102300.34;2069409;28;46287;-66
2023/01/31 04:33:58;;;;;;;;;16.00;13.00;;;;;8.01;65.45;102297.72;2069888;28;46495;-66
2023/01/31 04:34:59;;;;;;;;;13.80;11.60;;;;;8.01;65.14;102301.25;2065758;27;46148;-66
2023/01/31 04:35:59;;;;;;;;;12.00;11.00;;;;;8.01;65.59;102295.06;2064551;27;45844;-67
2023/01/31 04:37:00;;;;;;;;;9.00;9.00;;;;;7.99;65.66;102300.28;2065339;28;46847;-66
2023/01/31 04:38:00;;;;;;;;;9.50;8.50;;;;;8.00;65.58;102301.19;2067384;28;46654;-66
2023/01/31 04:39:01;;;;;;;;;14.25;13.00;;;;;8.00;65.44;102309.13;2070205;27;46192;-65
2023/01/31 04:40:01;;;;;;;;;11.25;9.00;;;;;8.00;65.49;102307.34;2061453;28;46411;-66
2023/01/31 04:41:01;;;;;;;;;11.25;10.00;;;;;8.00;65.46;102310.00;2066009;27;46777;-66
2023/01/31 04:42:02;;;;;;;;;11.75;10.50;;;;;7.98;65.25;102302.06;2069590;28;45816;-67
2023/01/31 04:43:02;;;;;;;;;12.75;10.00;;;;;7.98;65.37;102295.88;2069621;27;46419;-66
2023/01/31 04:44:02;;;;;;;;;10.50;6.50;;;;;7.98;65.54;102301.16;2069862;27;46543;-66
2023/01/31 04:45:03;;;;;;;;;11.00;10.75;;;;;7.96;65.42;102302.91;2069471;28;46183;-67
2023/01/31 04:46:03;;;;;;;;;11.50;11.25;;;;;7.96;65.32;102303.78;2067066;27;46810;-66
2023/01/31 04:47:04;;;;;;;;;11.00;11.00;;;;;7.95;65.52;102303.78;2063874;28;45880;-66
2023/01/31 04:48:04;;;;;;;;;8.50;8.50;;;;;7.94;65.26;102305.53;2069925;27;46008;-66
2023/01/31 04:49:05;;;;;;;;;9.00;8.75;;;;;7.94;65.32;102302.00;2070657;27;46567;-66
2023/01/31 04:50:06;;;;;;;;;10.00;9.00;;;;;7.94;65.52;102309.94;2060991;28;46433;-64
2023/01/31 04:51:06;;;;;;;;;13.50;11.75;;;;;7.92;65.47;102304.63;2062145;28;47120;-64
2023/01/31 04:52:06;;;;;;;;;10.25;8.75;;;;;7.92;65.25;102295.81;2070634;28;46241;-66
2023/01/31 04:53:07;;;;;;;;;10.00;9.50;;;;;7.92;65.47;102299.34;2069736;27;46441;-65
2023/01/31 04:54:08;;;;;;;;;10.00;8.75;;;;;7.92;65.34;102301.09;2064037;28;46443;-65
2023/01/31 04:55:08;;;;;;;;;10.50;9.50;;;;;7.89;65.39;102301.94;2054110;28;46305;-65
2023/01/31 04:56:09;;;;;;;;;9.00;8.75;;;;;7.88;65.37;102296.63;2059158;28;46780;-66
2023/01/31 04:57:09;;;;;;;;;10.50;9.75;;;;;7.86;65.33;102291.31;2071455;27;46596;-65
2023/01/31 04:58:09;;;;;;;;;11.50;11.50;;;;;7.86;65.64;102296.59;2069821;28;45537;-65
2023/01/31 04:59:10;;;;;;;;;6.00;3.75;;;;;7.85;65.56;102293.94;2071358;27;45834;-66
2023/01/31 05:00:11;;;;;;;;;12.25;11.75;;;;;7.86;65.56;102293.94;2070467;27;45271;-65
2023/01/31 05:01:11;;;;;;;;;11.50;10.50;;;;;7.85;65.40;102292.16;2069981;27;46253;-66
2023/01/31 05:02:13;;;;;;;;;9.75;9.75;;;;;7.86;65.50;102295.69;2071728;27;46822;-66
2023/01/31 05:03:14;;;;;;;;;11.00;10.60;;;;;7.86;65.33;102296.59;2073888;27;46968;-68
2023/01/31 05:04:15;;;;;;;;;10.00;9.75;;;;;7.86;65.34;102295.69;2061434;28;45578;-66
2023/01/31 05:05:15;;;;;;;;;9.00;8.75;;;;;7.85;65.41;102297.47;2063198;27;46218;-65
2023/01/31 05:06:15;;;;;;;;;11.25;10.25;;;;;7.85;65.45;102293.94;2069726;28;46403;-66